Time;durP1;ratioP1;P1;durP2;ratioP2;P2;SDS_P1;SDS_P2;PMS_P1;PMS_P2;Temp;Humidity;BMP_temperature;BMP_pressure;BME280_temperature;BME280_humidity;BME280_pressure;Samples;Min_cycle;Max_cycle;Signal;HPM_P1;HPM_P2
2022/11/26 00:02:30;;;;;;;28.63;11.20;;;;;;;5.18;100.00;101695.03;5070893;28;20036;-83
2022/11/26 00:04:59;;;;;;;31.13;12.82;;;;;;;5.23;100.00;101696.06;5064068;28;20040;-84
2022/11/26 00:07:32;;;;;;;24.63;10.77;;;;;;;5.20;100.00;101695.97;5074358;28;20052;-84
2022/11/26 00:10:01;;;;;;;31.65;12.45;;;;;;;5.23;100.00;101695.19;5079715;28;20143;-85
2022/11/26 00:12:35;;;;;;;40.00;14.13;;;;;;;5.21;100.00;101702.03;5061446;28;20805;-87
2022/11/26 00:15:31;;;;;;;28.13;12.15;;;;;;;5.18;100.00;101702.81;5048589;28;20044;-87
2022/11/26 00:17:58;;;;;;;38.30;12.77;;;;;;;5.11;100.00;101706.94;5070939;28;20117;-85
2022/11/26 00:20:32;;;;;;;30.70;11.80;;;;;;;5.08;100.00;101703.38;5076523;28;20048;-86
2022/11/26 00:23:04;;;;;;;29.80;12.10;;;;;;;5.01;100.00;101702.31;5086318;28;20085;-83
2022/11/26 00:25:45;;;;;;;19.33;10.57;;;;;;;4.99;100.00;101703.97;5090283;28;20085;-84
2022/11/26 00:28:37;;;;;;;22.40;11.48;;;;;;;5.01;100.00;101717.00;5070643;28;20178;-85
2022/11/26 00:31:14;;;;;;;28.33;11.55;;;;;;;5.01;100.00;101723.06;5053126;28;20044;-84
2022/11/26 00:33:41;;;;;;;28.05;11.38;;;;;;;5.01;100.00;101725.66;5067035;28;20045;-86
2022/11/26 00:36:20;;;;;;;25.85;12.25;;;;;;;5.03;100.00;101729.19;5072979;28;20052;-83
2022/11/26 00:38:53;;;;;;;31.30;11.77;;;;;;;5.02;100.00;101727.44;5058340;28;20071;-84
2022/11/26 00:41:25;;;;;;;18.17;9.77;;;;;;;5.02;100.00;101740.41;5083766;28;20071;-84
2022/11/26 00:43:52;;;;;;;27.45;10.75;;;;;;;5.00;100.00;101742.06;5073123;28;20048;-85
2022/11/26 00:46:24;;;;;;;18.85;10.45;;;;;;;5.01;100.00;101745.56;5082932;28;20072;-86
2022/11/26 00:48:51;;;;;;;28.50;11.73;;;;;;;4.96;100.00;101750.59;5064746;28;20046;-87
2022/11/26 00:51:25;;;;;;;27.80;11.95;;;;;;;4.96;100.00;101748.84;5059343;28;20048;-86
2022/11/26 00:53:59;;;;;;;26.42;10.27;;;;;;;4.94;100.00;101758.31;5056087;28;20471;-84
2022/11/26 00:56:26;;;;;;;20.85;9.75;;;;;;;4.91;100.00;101759.94;5065521;28;20551;-86
2022/11/26 00:58:56;;;;;;;23.83;9.57;;;;;;;4.87;100.00;101763.25;5078808;28;20066;-85
2022/11/26 01:01:26;;;;;;;28.55;10.77;;;;;;;4.85;100.00;101768.41;5078396;28;20627;-83
2022/11/26 01:03:53;;;;;;;21.83;11.40;;;;;;;4.83;100.00;101769.19;5094153;28;20044;-86
2022/11/26 01:06:30;;;;;;;21.70;11.30;;;;;;;4.85;100.00;101775.28;5074735;28;20687;-85
2022/11/26 01:08:57;;;;;;;23.02;9.43;;;;;;;4.78;100.00;101776.81;5071314;28;20459;-85
2022/11/26 01:11:25;;;;;;;17.35;9.13;;;;;;;4.75;100.00;101775.00;5075886;28;20051;-86
2022/11/26 01:13:55;;;;;;;24.58;8.27;;;;;;;4.72;100.00;101774.91;5079974;28;20704;-86
2022/11/26 01:16:29;;;;;;;20.60;8.55;;;;;;;4.66;100.00;101779.88;5069287;28;20068;-86
2022/11/26 01:19:01;;;;;;;18.58;9.50;;;;;;;4.63;100.00;101788.44;5089720;28;20112;-89
2022/11/26 01:21:33;;;;;;;23.05;10.55;;;;;;;4.60;100.00;101793.53;5099255;28;20056;-86
2022/11/26 01:24:00;;;;;;;23.63;9.05;;;;;;;4.59;100.00;101803.88;5089082;28;20581;-83
2022/11/26 01:26:31;;;;;;;25.42;10.23;;;;;;;4.56;100.00;101801.16;5091816;28;20040;-85
2022/11/26 01:28:58;;;;;;;23.05;9.85;;;;;;;4.53;100.00;101799.31;5085029;28;20047;-83
2022/11/26 01:31:28;;;;;;;25.90;10.95;;;;;;;4.54;100.00;101805.41;5077178;28;20071;-86
2022/11/26 01:33:56;;;;;;;24.92;10.52;;;;;;;4.52;100.00;101805.34;5088127;28;20398;-86
2022/11/26 01:36:33;;;;;;;19.52;8.57;;;;;;;4.50;100.00;101809.59;5083044;28;20043;-86
2022/11/26 01:39:20;;;;;;;19.30;8.77;;;;;;;4.47;100.00;101807.78;5105779;28;20043;-86
2022/11/26 01:42:43;;;;;;;20.75;8.73;;;;;;;4.43;100.00;101808.50;5078614;28;20044;-87
2022/11/26 01:45:17;;;;;;;23.15;8.10;;;;;;;4.41;100.00;101815.34;5032948;28;20080;-85
2022/11/26 01:47:47;;;;;;;16.80;8.18;;;;;;;4.44;100.00;101815.44;5020972;28;20058;-84
2022/11/26 01:50:54;;;;;;;22.55;9.02;;;;;;;4.40;100.00;101825.66;5044700;28;20049;-84
2022/11/26 01:53:55;;;;;;;20.85;7.95;;;;;;;4.42;100.00;101822.31;5019097;28;20056;-89
2022/11/26 01:56:51;;;;;;;20.33;8.98;;;;;;;4.37;100.00;101828.13;5083992;28;20109;-84
2022/11/26 01:59:23;;;;;;;19.55;8.38;;;;;;;4.34;100.00;101823.75;5080146;28;20051;-85
2022/11/26 02:01:52;;;;;;;20.23;7.43;;;;;;;4.34;100.00;101838.41;5084510;28;20047;-84
2022/11/26 02:04:25;;;;;;;22.48;8.65;;;;;;;4.32;100.00;101834.91;5081078;28;20048;-85
2022/11/26 02:06:54;;;;;;;16.58;7.40;;;;;;;4.33;100.00;101842.72;5083093;28;20037;-83
2022/11/26 02:09:29;;;;;;;19.27;8.00;;;;;;;4.30;100.00;101843.50;5069007;28;20114;-84
2022/11/26 02:11:55;;;;;;;18.20;8.00;;;;;;;4.33;100.00;101841.81;5080301;28;20044;-85
2022/11/26 02:14:30;;;;;;;23.08;9.10;;;;;;;4.30;100.00;101840.91;5091012;28;20386;-84
2022/11/26 02:17:35;;;;;;;27.23;8.25;;;;;;;4.30;100.00;101851.25;5087176;28;20389;-83
2022/11/26 02:20:23;;;;;;;21.00;7.40;;;;;;;4.28;100.00;101850.31;5086928;28;20056;-83
2022/11/26 02:22:50;;;;;;;13.90;8.10;;;;;;;4.28;100.00;101858.09;5088840;28;20090;-84
2022/11/26 02:25:48;;;;;;;22.75;8.13;;;;;;;4.28;100.00;101855.50;5083757;28;20605;-86
2022/11/26 02:28:36;;;;;;;22.65;9.35;;;;;;;4.25;100.00;101864.88;5077077;28;20639;-84
2022/11/26 02:31:16;;;;;;;12.43;6.90;;;;;;;4.20;100.00;101859.53;5093981;28;20025;-84
2022/11/26 02:33:56;;;;;;;18.95;7.30;;;;;;;4.19;100.00;101857.75;5082352;28;20079;-86
2022/11/26 02:37:06;;;;;;;22.75;8.05;;;;;;;4.19;100.00;101862.94;5073398;28;20071;-86
2022/11/26 02:39:32;;;;;;;20.83;8.77;;;;;;;4.14;100.00;101867.06;5046805;28;20029;-89
2022/11/26 02:42:03;;;;;;;15.20;7.03;;;;;;;4.15;100.00;101863.66;5098851;28;20068;-84
2022/11/26 02:44:42;;;;;;;24.50;7.32;;;;;;;4.12;100.00;101868.75;5075986;28;20536;-88
2022/11/26 02:47:14;;;;;;;21.88;8.00;;;;;;;4.16;100.00;101878.41;5095177;28;20069;-86
2022/11/26 02:49:42;;;;;;;20.10;7.97;;;;;;;4.13;100.00;101878.25;5077238;28;20040;-86
2022/11/26 02:52:11;;;;;;;17.65;8.07;;;;;;;4.11;100.00;101888.56;5095315;28;20363;-85
2022/11/26 02:54:40;;;;;;;13.25;6.65;;;;;;;4.08;100.00;101887.56;5094475;28;20059;-84
2022/11/26 02:57:13;;;;;;;19.30;6.93;;;;;;;4.05;100.00;101885.75;5069439;28;20032;-86
2022/11/26 02:59:43;;;;;;;13.73;7.32;;;;;;;3.97;100.00;101879.41;5079739;28;20051;-84
2022/11/26 03:02:43;;;;;;;9.60;5.75;;;;;;;3.98;100.00;101887.22;5082701;28;20080;-84
2022/11/26 03:05:13;;;;;;;11.10;6.65;;;;;;;3.95;100.00;101888.81;5087273;28;20113;-84
2022/11/26 03:07:41;;;;;;;13.85;5.70;;;;;;;3.93;100.00;101895.66;5070201;28;20036;-84
2022/11/26 03:10:09;;;;;;;17.13;7.13;;;;;;;3.91;100.00;101899.88;5048505;28;20048;-84
2022/11/26 03:12:35;;;;;;;10.07;5.15;;;;;;;3.89;100.00;101906.72;5068278;28;20037;-84
2022/11/26 03:15:02;;;;;;;22.38;7.00;;;;;;;3.88;100.00;101908.41;5071474;28;20086;-84
2022/11/26 03:17:28;;;;;;;19.20;7.93;;;;;;;3.90;100.00;101911.09;5080086;28;20040;-83
2022/11/26 03:19:55;;;;;;;19.65;7.22;;;;;;;3.91;100.00;101916.34;5081211;28;20827;-85
2022/11/26 03:22:22;;;;;;;16.35;6.88;;;;;;;3.94;100.00;101913.84;5098193;28;20123;-86
2022/11/26 03:24:50;;;;;;;17.50;6.65;;;;;;;3.93;100.00;101912.06;5076635;28;20044;-86
2022/11/26 03:27:16;;;;;;;17.15;7.10;;;;;;;3.92;100.00;101907.72;5065195;28;20138;-86
2022/11/26 03:29:44;;;;;;;15.77;6.63;;;;;;;3.93;100.00;101914.66;5095272;28;20039;-87
2022/11/26 03:32:11;;;;;;;17.52;7.03;;;;;;;3.89;100.00;101911.91;5097065;28;20139;-86
2022/11/26 03:34:39;;;;;;;16.70;6.45;;;;;;;3.84;100.00;101908.25;5089704;28;20047;-86
2022/11/26 03:37:05;;;;;;;9.15;4.90;;;;;;;3.80;100.00;101908.13;5094007;28;20071;-86
2022/11/26 03:39:32;;;;;;;14.23;7.18;;;;;;;3.81;100.00;101912.47;5099988;28;20043;-86
2022/11/26 03:41:59;;;;;;;11.73;7.60;;;;;;;3.81;100.00;101917.66;5108563;28;20039;-84
2022/11/26 03:44:25;;;;;;;14.60;5.72;;;;;;;3.77;100.00;101920.97;5091563;28;20039;-85
2022/11/26 03:46:52;;;;;;;10.38;4.32;;;;;;;3.73;100.00;101918.19;5092678;28;20036;-86
2022/11/26 03:49:19;;;;;;;14.90;6.05;;;;;;;3.75;100.00;101921.72;5090197;28;20039;-85
2022/11/26 03:51:46;;;;;;;16.65;6.05;;;;;;;3.74;100.00;101919.94;5073983;28;20051;-85
2022/11/26 03:54:12;;;;;;;15.60;6.57;;;;;;;3.73;100.00;101919.09;5096765;28;20051;-85
2022/11/26 03:56:39;;;;;;;16.52;5.55;;;;;;;3.72;100.00;101914.72;5074113;28;20406;-85
2022/11/26 03:59:06;;;;;;;13.32;5.85;;;;;;;3.73;100.00;101915.59;5097103;28;20051;-84
2022/11/26 04:01:33;;;;;;;33.83;17.42;;;;;;;3.73;100.00;101913.91;5102013;28;20055;-85
2022/11/26 04:04:01;;;;;;;23.02;8.57;;;;;;;3.78;100.00;101919.25;5098141;28;20055;-85
2022/11/26 04:06:29;;;;;;;18.80;6.95;;;;;;;3.75;100.00;101916.53;5114565;28;20054;-84
2022/11/26 04:08:55;;;;;;;19.10;8.63;;;;;;;3.72;100.00;101919.91;5094729;28;20553;-84
2022/11/26 04:11:22;;;;;;;15.65;7.28;;;;;;;3.71;100.00;101925.91;5099786;28;20523;-84
2022/11/26 04:13:50;;;;;;;12.75;6.10;;;;;;;3.67;100.00;101917.97;5100567;28;20138;-88
2022/11/26 04:16:16;;;;;;;13.55;6.88;;;;;;;3.67;100.00;101923.13;5107871;28;20047;-83
2022/11/26 04:18:43;;;;;;;11.88;5.95;;;;;;;3.66;100.00;101921.38;5093535;28;20064;-84
2022/11/26 04:21:10;;;;;;;12.43;5.72;;;;;;;3.67;100.00;101921.41;5078712;28;20056;-86
2022/11/26 04:23:37;;;;;;;12.85;6.13;;;;;;;3.67;100.00;101925.72;5055019;28;20531;-86
2022/11/26 04:26:04;;;;;;;16.98;5.72;;;;;;;3.64;100.00;101921.31;5094436;28;20061;-84
2022/11/26 04:28:31;;;;;;;9.90;5.35;;;;;;;3.61;100.00;101921.16;5078387;28;20444;-85
2022/11/26 04:30:58;;;;;;;11.68;5.72;;;;;;;3.60;100.00;101920.28;5067106;28;20040;-86
2022/11/26 04:33:26;;;;;;;12.57;5.80;;;;;;;3.59;100.00;101928.88;5096101;28;20043;-85
2022/11/26 04:35:55;;;;;;;9.02;5.07;;;;;;;3.58;100.00;101931.41;5076165;28;20048;-85
2022/11/26 04:38:21;;;;;;;13.82;5.85;;;;;;;3.55;100.00;101929.59;5072377;28;20052;-86
2022/11/26 04:40:48;;;;;;;11.70;5.57;;;;;;;3.55;100.00;101934.75;5074558;28;20559;-85
2022/11/26 04:43:15;;;;;;;19.05;7.65;;;;;;;3.52;100.00;101932.06;5054317;28;20040;-85
2022/11/26 04:45:41;;;;;;;11.75;6.45;;;;;;;3.51;100.00;101938.06;5074426;28;20573;-85
2022/11/26 04:48:08;;;;;;;18.67;7.15;;;;;;;3.47;100.00;101942.22;5078142;28;20044;-85
2022/11/26 04:50:35;;;;;;;16.23;6.53;;;;;;;3.46;100.00;101937.84;5058475;28;20135;-85
2022/11/26 04:53:03;;;;;;;39.42;20.33;;;;;;;3.45;100.00;101936.06;5083432;28;20056;-85
2022/11/26 04:55:30;;;;;;;15.65;6.88;;;;;;;3.46;100.00;101940.44;5063826;28;20040;-85
2022/11/26 04:57:56;;;;;;;13.88;6.45;;;;;;;3.46;100.00;101955.97;5079491;28;20044;-85
2022/11/26 05:00:31;;;;;;;14.70;7.50;;;;;;;3.44;100.00;101952.47;5082664;28;20040;-86
2022/11/26 05:02:58;;;;;;;20.85;7.20;;;;;;;3.42;100.00;101955.81;5077823;28;20093;-86
2022/11/26 05:05:25;;;;;;;15.77;7.00;;;;;;;3.41;100.00;101954.91;5069752;28;20045;-86
2022/11/26 05:07:53;;;;;;;14.65;6.20;;;;;;;3.41;100.00;101954.03;5061969;28;20036;-85
2022/11/26 05:10:20;;;;;;;13.80;6.60;;;;;;;3.38;100.00;101961.69;5076607;28;20055;-84
2022/11/26 05:12:47;;;;;;;11.95;6.97;;;;;;;3.33;100.00;101961.47;5059093;28;20093;-84
2022/11/26 05:15:14;;;;;;;17.90;7.30;;;;;;;3.30;100.00;101969.13;5075798;28;20040;-88
2022/11/26 05:17:41;;;;;;;14.63;6.68;;;;;;;3.27;100.00;101967.28;5069219;28;20422;-86
2022/11/26 05:20:09;;;;;;;16.08;8.70;;;;;;;3.25;100.00;101974.09;5090523;28;20123;-86
2022/11/26 05:22:35;;;;;;;15.50;7.45;;;;;;;3.23;100.00;101980.88;5077664;28;20040;-86
2022/11/26 05:25:03;;;;;;;22.65;13.38;;;;;;;3.23;100.00;101985.19;5077969;28;20044;-84
2022/11/26 05:27:30;;;;;;;16.92;8.85;;;;;;;3.22;100.00;101991.19;5084945;28;20152;-85
2022/11/26 05:29:57;;;;;;;24.48;9.30;;;;;;;3.25;100.00;101993.91;5062762;28;20052;-85
2022/11/26 05:32:26;;;;;;;27.40;9.40;;;;;;;3.26;100.00;101995.66;5075295;28;20131;-84
2022/11/26 05:34:52;;;;;;;17.40;7.30;;;;;;;3.25;100.00;101994.78;5057846;28;20139;-84
2022/11/26 05:37:19;;;;;;;12.88;7.68;;;;;;;3.23;100.00;102000.72;5073139;28;20075;-84
2022/11/26 05:39:46;;;;;;;18.67;7.15;;;;;;;3.21;100.00;102010.13;5074757;28;20423;-84
2022/11/26 05:42:14;;;;;;;14.73;8.55;;;;;;;3.17;100.00;102006.53;5079894;28;20043;-86
2022/11/26 05:44:41;;;;;;;18.92;8.00;;;;;;;3.15;100.00;102015.91;5069588;28;20121;-85
2022/11/26 05:47:09;;;;;;;16.83;8.45;;;;;;;3.12;100.00;102013.19;5068741;28;20037;-86
2022/11/26 05:49:35;;;;;;;14.40;8.40;;;;;;;3.12;100.00;102018.38;5070913;28;20045;-86
2022/11/26 05:52:02;;;;;;;18.00;7.90;;;;;;;3.11;100.00;102022.66;5063538;28;20901;-86
2022/11/26 05:54:29;;;;;;;19.23;8.45;;;;;;;3.09;100.00;102019.13;5074713;28;20040;-85
2022/11/26 05:56:58;;;;;;;15.73;8.10;;;;;;;3.09;100.00;102026.88;5074477;28;20065;-87
2022/11/26 05:59:25;;;;;;;19.10;9.35;;;;;;;3.10;100.00;102020.91;5075858;28;20071;-86
2022/11/26 06:01:52;;;;;;;18.27;9.43;;;;;;;3.11;100.00;102021.78;5069148;28;20062;-85
2022/11/26 06:04:19;;;;;;;15.77;7.80;;;;;;;3.09;100.00;102020.81;5104912;28;20463;-88
2022/11/26 06:06:45;;;;;;;17.75;7.68;;;;;;;3.08;100.00;102026.84;5083286;28;20113;-85
2022/11/26 06:09:12;;;;;;;18.30;7.72;;;;;;;3.08;100.00;102032.00;5078359;28;20058;-86
2022/11/26 06:11:39;;;;;;;17.80;9.10;;;;;;;3.06;100.00;102028.44;5061133;28;20052;-82
2022/11/26 06:14:06;;;;;;;13.73;8.07;;;;;;;3.02;100.00;102027.41;5068592;28;20111;-87
2022/11/26 06:16:33;;;;;;;23.67;9.00;;;;;;;3.01;100.00;102032.53;5085604;28;20051;-88
2022/11/26 06:19:00;;;;;;;21.88;8.65;;;;;;;2.98;100.00;102031.56;5071009;28;20053;-84
2022/11/26 06:21:26;;;;;;;29.15;9.50;;;;;;;3.01;100.00;102030.81;5077145;28;20054;-84
2022/11/26 06:23:53;;;;;;;14.82;8.32;;;;;;;3.06;100.00;102036.22;5076396;28;20479;-85
2022/11/26 06:26:20;;;;;;;23.05;9.88;;;;;;;3.04;100.00;102046.50;5058480;28;20059;-84
2022/11/26 06:28:47;;;;;;;16.15;8.73;;;;;;;3.05;100.00;102050.88;5076826;28;20063;-86
2022/11/26 06:31:16;;;;;;;17.13;8.27;;;;;;;3.05;100.00;102055.13;5076346;28;20433;-85
2022/11/26 06:33:42;;;;;;;24.50;10.18;;;;;;;3.03;100.00;102046.44;5078393;28;20482;-85
2022/11/26 06:36:10;;;;;;;17.52;9.60;;;;;;;3.02;100.00;102050.69;5074962;28;20051;-85
2022/11/26 06:38:36;;;;;;;14.40;8.73;;;;;;;3.00;100.00;102051.44;5084799;28;20041;-84
2022/11/26 06:41:07;;;;;;;13.13;8.35;;;;;;;2.98;100.00;102054.84;5075179;28;20059;-86
2022/11/26 06:43:35;;;;;;;25.88;10.25;;;;;;;2.98;100.00;102061.75;5075718;28;20112;-86
2022/11/26 06:46:05;;;;;;;14.40;7.53;;;;;;;2.95;100.00;102062.47;5081211;28;20052;-85
2022/11/26 06:48:33;;;;;;;22.75;8.98;;;;;;;2.92;100.00;102066.63;5075725;28;20036;-86
2022/11/26 06:51:09;;;;;;;17.95;9.13;;;;;;;2.90;100.00;102081.22;5073000;28;20044;-85
2022/11/26 06:53:37;;;;;;;21.98;8.68;;;;;;;2.90;100.00;102079.50;5060050;28;20578;-85
2022/11/26 06:56:11;;;;;;;16.60;8.20;;;;;;;2.91;100.00;102086.44;5074160;28;20048;-85
2022/11/26 06:58:38;;;;;;;17.55;8.95;;;;;;;2.92;100.00;102084.72;5077406;28;20818;-86
2022/11/26 07:01:16;;;;;;;16.42;8.68;;;;;;;2.90;100.00;102095.00;5076830;28;20047;-87
2022/11/26 07:03:42;;;;;;;15.05;8.43;;;;;;;2.88;100.00;102100.94;5075460;28;20412;-86
2022/11/26 07:06:35;;;;;;;17.13;7.97;;;;;;;2.84;100.00;102102.47;5093920;28;20036;-84
2022/11/26 07:09:07;;;;;;;24.52;8.50;;;;;;;2.85;100.00;102106.84;5069175;28;20143;-85
2022/11/26 07:11:35;;;;;;;25.30;11.40;;;;;;;2.86;100.00;102111.22;5075092;28;20048;-85
2022/11/26 07:14:02;;;;;;;19.05;9.40;;;;;;;2.97;100.00;102115.19;5060620;28;20047;-85
2022/11/26 07:16:29;;;;;;;23.75;9.13;;;;;;;3.00;100.00;102114.44;5078147;28;20048;-85
2022/11/26 07:18:58;;;;;;;17.02;8.55;;;;;;;3.12;100.00;102112.41;5078542;28;20028;-84
2022/11/26 07:21:29;;;;;;;22.77;8.55;;;;;;;3.15;100.00;102109.06;5073274;28;20087;-85
2022/11/26 07:23:56;;;;;;;22.25;9.73;;;;;;;3.24;100.00;102114.66;5073023;28;20042;-87
2022/11/26 07:26:24;;;;;;;19.75;8.65;;;;;;;3.27;100.00;102112.22;5076305;28;20111;-86
2022/11/26 07:28:51;;;;;;;15.98;8.63;;;;;;;3.26;100.00;102114.72;5057802;28;20047;-84
2022/11/26 07:31:24;;;;;;;15.27;8.93;;;;;;;3.25;100.00;102115.56;5079560;28;20054;-84
2022/11/26 07:33:51;;;;;;;20.00;7.93;;;;;;;3.24;100.00;102117.25;5074887;28;20032;-84
2022/11/26 07:36:24;;;;;;;16.30;7.53;;;;;;;3.23;100.00;102109.41;5065258;28;20044;-86
2022/11/26 07:38:55;;;;;;;20.13;9.83;;;;;;;3.23;100.00;102112.00;5108115;28;20056;-87
2022/11/26 07:41:22;;;;;;;18.33;8.88;;;;;;;3.32;100.00;102107.22;5103381;28;20298;-87
2022/11/26 07:43:50;;;;;;;15.18;8.10;;;;;;;3.38;100.00;102124.75;5060703;28;20435;-86
2022/11/26 07:46:22;;;;;;;18.58;8.50;;;;;;;3.42;100.00;102118.88;5065593;28;20100;-84
2022/11/26 07:48:49;;;;;;;20.85;8.35;;;;;;;3.55;100.00;102128.94;5075271;28;20099;-84
2022/11/26 07:51:21;;;;;;;16.35;9.20;;;;;;;3.62;100.00;102130.09;5074727;28;20036;-86
2022/11/26 07:53:49;;;;;;;22.45;10.07;;;;;;;3.82;100.00;102141.34;5078603;28;20049;-84
2022/11/26 07:56:16;;;;;;;18.90;10.45;;;;;;;4.00;100.00;102130.84;5079518;28;20043;-85
2022/11/26 07:58:44;;;;;;;21.35;10.77;;;;;;;4.16;100.00;102136.66;5079861;28;20047;-86
2022/11/26 08:01:18;;;;;;;18.15;9.95;;;;;;;4.25;100.00;102130.16;5102290;28;20044;-89
2022/11/26 08:03:47;;;;;;;23.13;11.63;;;;;;;4.30;100.00;102140.69;5083632;28;20061;-87
2022/11/26 08:06:21;;;;;;;17.25;9.15;;;;;;;4.36;100.00;102138.38;5072787;28;20135;-87
2022/11/26 08:08:48;;;;;;;;;;;;;;;4.39;100.00;102146.25;5091099;28;20215;-82
2022/11/26 08:11:24;;;;;;;21.35;8.35;;;;;;;4.46;100.00;102150.00;5075752;28;20357;-83
2022/11/26 08:13:57;;;;;;;20.40;9.52;;;;;;;4.45;100.00;102149.09;5080001;28;20032;-85
2022/11/26 08:16:25;;;;;;;18.65;8.68;;;;;;;4.51;100.00;102152.78;5099418;28;20051;-84
2022/11/26 08:19:03;;;;;;;17.48;7.80;;;;;;;4.55;100.00;102149.47;5085768;28;20049;-87
2022/11/26 08:21:30;;;;;;;19.52;10.35;;;;;;;4.60;100.00;102151.44;5097041;28;20052;-85
2022/11/26 08:23:57;;;;;;;20.52;9.07;;;;;;;4.68;100.00;102146.56;5099026;28;20040;-84
2022/11/26 08:26:26;;;;;;;24.17;10.25;;;;;;;4.72;100.00;102152.72;5083618;28;20044;-86
2022/11/26 08:28:53;;;;;;;20.63;9.57;;;;;;;4.76;100.00;102159.84;5083597;28;20123;-87
2022/11/26 08:31:23;;;;;;;20.23;9.10;;;;;;;4.79;100.00;102159.94;5095901;28;20118;-85
2022/11/26 08:33:50;;;;;;;15.90;8.30;;;;;;;4.80;100.00;102169.50;5057976;28;20043;-85
2022/11/26 08:36:17;;;;;;;16.95;9.50;;;;;;;4.88;100.00;102173.28;5063925;28;20044;-85
2022/11/26 08:38:43;;;;;;;20.92;8.77;;;;;;;4.95;100.00;102174.41;5080151;28;20060;-84
2022/11/26 08:41:14;;;;;;;26.77;9.75;;;;;;;5.00;100.00;102177.19;5073140;28;20063;-83
2022/11/26 08:43:42;;;;;;;23.80;9.18;;;;;;;5.02;100.00;102178.09;5061060;28;20451;-87
2022/11/26 08:46:10;;;;;;;17.05;8.27;;;;;;;4.99;100.00;102173.69;5077169;28;20071;-85
2022/11/26 08:48:37;;;;;;;16.05;9.35;;;;;;;4.96;100.00;102169.25;5061158;28;20040;-86
2022/11/26 08:51:08;;;;;;;16.67;9.43;;;;;;;4.93;100.00;102182.13;5065966;28;20346;-84
2022/11/26 08:53:36;;;;;;;16.10;9.40;;;;;;;4.90;100.00;102182.03;5092571;28;20032;-85
2022/11/26 08:56:06;;;;;;;16.83;8.15;;;;;;;4.89;100.00;102184.53;5064739;28;20083;-84
2022/11/26 08:58:35;;;;;;;17.75;8.50;;;;;;;4.90;100.00;102189.81;5076089;28;20032;-85
2022/11/26 09:01:15;;;;;;;15.13;8.65;;;;;;;4.94;100.00;102191.69;5063695;28;20040;-85
2022/11/26 09:03:42;;;;;;;12.10;7.50;;;;;;;4.94;100.00;102186.50;5081898;28;20044;-85
2022/11/26 09:06:10;;;;;;;21.83;8.63;;;;;;;4.94;100.00;102194.28;5079019;28;20071;-86
2022/11/26 09:09:11;;;;;;;17.52;9.60;;;;;;;4.97;100.00;102196.13;5087525;28;20066;-86
2022/11/26 09:11:29;;;;;;;17.67;8.57;;;;;;;4.97;100.00;102193.53;5090615;28;20122;-86
2022/11/26 09:13:58;;;;;;;15.88;8.55;;;;;;;4.97;100.00;102191.78;5091579;28;20039;-85
2022/11/26 09:16:28;;;;;;;18.05;8.10;;;;;;;4.99;100.00;102199.63;5088386;28;20116;-84
2022/11/26 09:18:56;;;;;;;17.73;8.88;;;;;;;5.00;100.00;102193.63;5093974;28;20546;-87
2022/11/26 09:21:23;;;;;;;17.58;8.30;;;;;;;5.03;100.00;102196.34;5111065;28;20425;-85
2022/11/26 09:23:49;;;;;;;17.58;9.75;;;;;;;5.03;100.00;102191.16;5098319;28;20121;-85
2022/11/26 09:26:19;;;;;;;21.58;12.48;;;;;;;5.03;100.00;102191.16;5091941;28;20047;-86
2022/11/26 09:28:48;;;;;;;20.88;10.55;;;;;;;5.04;100.00;102192.03;5086222;28;20050;-85
2022/11/26 09:31:15;;;;;;;12.75;6.82;;;;;;;5.05;100.00;102199.00;5089369;28;20081;-84
2022/11/26 09:33:45;;;;;;;19.10;9.13;;;;;;;5.04;100.00;102199.81;5076461;28;20067;-85
2022/11/26 09:36:17;;;;;;;14.45;8.57;;;;;;;5.07;100.00;102210.31;5079457;28;20508;-85
2022/11/26 09:38:44;;;;;;;20.98;9.52;;;;;;;5.11;100.00;102204.41;5091601;28;20036;-84
2022/11/26 09:42:03;;;;;;;15.88;8.88;;;;;;;5.17;100.00;102202.06;5094834;28;20050;-85
2022/11/26 09:44:45;;;;;;;13.57;7.53;;;;;;;5.22;100.00;102203.13;5050931;28;20101;-86
2022/11/26 09:47:38;;;;;;;14.55;9.15;;;;;;;5.27;100.00;102209.38;5115860;28;20058;-84
2022/11/26 09:50:24;;;;;;;20.23;8.02;;;;;;;5.38;100.00;102208.91;5095353;28;20047;-87
2022/11/26 09:52:58;;;;;;;20.17;9.90;;;;;;;5.58;100.00;102207.94;5078891;28;20055;-85
2022/11/26 09:55:39;;;;;;;21.77;8.55;;;;;;;5.84;100.00;102217.47;5099841;28;20048;-86
2022/11/26 09:58:30;;;;;;;23.35;9.63;;;;;;;5.93;100.00;102215.22;5095180;28;20381;-84
2022/11/26 10:00:59;;;;;;;27.15;10.57;;;;;;;6.08;100.00;102217.50;5089763;28;20036;-84
2022/11/26 10:03:37;;;;;;;24.98;10.05;;;;;;;6.21;100.00;102224.03;5094973;28;20047;-85
2022/11/26 10:06:29;;;;;;;19.15;9.13;;;;;;;6.29;100.00;102225.16;5084215;28;20039;-88
2022/11/26 10:09:21;;;;;;;25.60;9.23;;;;;;;6.36;100.00;102219.34;5099913;28;20435;-87
2022/11/26 10:12:24;;;;;;;18.90;8.02;;;;;;;6.44;100.00;102225.69;5080622;28;20044;-87
2022/11/26 10:15:13;;;;;;;17.48;8.55;;;;;;;6.61;100.00;102226.22;5100110;28;20522;-84
2022/11/26 10:18:17;;;;;;;21.35;9.38;;;;;;;6.77;100.00;102229.34;5094187;28;20051;-84
2022/11/26 10:20:55;;;;;;;24.88;10.15;;;;;;;6.91;100.00;102233.25;5071111;28;20048;-83
2022/11/26 10:23:31;;;;;;;19.40;7.90;;;;;;;6.94;100.00;102235.09;5081048;28;20169;-85
2022/11/26 10:26:23;;;;;;;22.58;8.05;;;;;;;7.18;100.00;102232.34;5094364;28;20078;-85
2022/11/26 10:29:18;;;;;;;16.42;7.47;;;;;;;7.24;100.00;102231.66;5064433;28;20273;-84
2022/11/26 10:31:50;;;;;;;23.27;9.85;;;;;;;7.37;100.00;102239.00;5085307;28;20193;-87
2022/11/26 10:34:24;;;;;;;22.83;8.60;;;;;;;7.47;100.00;102237.56;5074924;28;20120;-84
2022/11/26 10:36:51;;;;;;;;;;;;;;;7.53;100.00;102240.31;5072248;28;20149;-86
2022/11/26 10:39:20;;;;;;;20.35;7.57;;;;;;;7.42;100.00;102242.63;5094429;28;19920;-86
2022/11/26 10:41:47;;;;;;;19.33;7.20;;;;;;;7.45;100.00;102240.09;5077715;28;20135;-87
2022/11/26 10:44:41;;;;;;;19.92;8.48;;;;;;;7.40;100.00;102240.81;5079190;28;20044;-84
2022/11/26 10:47:25;;;;;;;24.02;8.30;;;;;;;7.34;100.00;102246.72;5076552;28;20052;-86
2022/11/26 10:49:57;;;;;;;19.60;7.97;;;;;;;7.35;100.00;102242.38;5084283;28;20059;-83
2022/11/26 10:52:29;;;;;;;18.95;7.20;;;;;;;7.50;100.00;102244.59;5095285;28;20115;-88
2022/11/26 10:55:39;;;;;;;16.83;6.93;;;;;;;7.65;100.00;102244.13;5078989;28;20095;-84
2022/11/26 10:58:15;;;;;;;15.98;7.38;;;;;;;7.77;100.00;102239.28;5077898;28;20064;-85
2022/11/26 11:00:47;;;;;;;21.75;8.60;;;;;;;7.85;100.00;102240.38;5072172;28;20064;-82
2022/11/26 11:03:24;;;;;;;21.55;7.90;;;;;;;7.84;100.00;102242.94;5090592;28;20048;-83
2022/11/26 11:05:51;;;;;;;18.75;7.95;;;;;;;7.87;100.00;102241.28;5112768;27;20361;-83
2022/11/26 11:08:32;;;;;;;21.95;9.02;;;;;;;7.86;100.00;102239.53;5079743;28;20093;-83
2022/11/26 11:11:03;;;;;;;24.08;8.32;;;;;;;7.92;100.00;102242.28;5079596;28;20044;-87
2022/11/26 11:13:45;;;;;;;20.95;8.27;;;;;;;8.03;100.00;102250.44;5088342;28;20052;-84
2022/11/26 11:16:14;;;;;;;21.23;8.98;;;;;;;8.11;100.00;102255.84;5106156;28;20062;-84
2022/11/26 11:18:52;;;;;;;24.75;8.43;;;;;;;8.15;100.00;102252.47;5080405;28;20060;-85
2022/11/26 11:21:21;;;;;;;23.00;8.48;;;;;;;8.16;100.00;102242.91;5070934;28;20056;-86
2022/11/26 11:23:48;;;;;;;18.02;8.10;;;;;;;8.27;100.00;102244.09;5066694;28;20103;-85
2022/11/26 11:26:25;;;;;;;23.95;9.70;;;;;;;8.38;100.00;102255.69;5075179;28;20510;-85
2022/11/26 11:28:55;;;;;;;17.55;8.40;;;;;;;8.34;100.00;102247.75;5077515;28;20042;-87
2022/11/26 11:31:27;;;;;;;27.98;11.40;;;;;;;8.35;100.00;102242.56;5075281;28;20052;-84
2022/11/26 11:34:18;;;;;;;22.25;9.60;;;;;;;8.34;100.00;102240.78;5080739;28;20040;-84
2022/11/26 11:36:59;;;;;;;28.65;10.27;;;;;;;8.25;100.00;102243.16;5068747;28;20048;-84
2022/11/26 11:39:33;;;;;;;21.58;10.10;;;;;;;8.35;100.00;102239.06;5088188;28;20050;-86
2022/11/26 11:42:02;;;;;;;30.77;10.43;;;;;;;8.35;100.00;102239.94;5065003;28;20062;-84